createdAt,value
2023-02-27T00:01:21.891Z,61.04
2023-02-27T00:06:24.904Z,61.38
2023-02-27T00:11:28.028Z,61.76
2023-02-27T00:16:32.488Z,61.69
2023-02-27T00:21:36.771Z,62.66
2023-02-27T00:26:39.745Z,63.45
2023-02-27T00:31:43.971Z,63.21
2023-02-27T00:36:46.852Z,63.20
2023-02-27T00:41:49.580Z,63.83
2023-02-27T00:46:53.789Z,63.61
2023-02-27T00:51:56.601Z,63.33
2023-02-27T00:56:59.838Z,63.25
2023-02-27T01:02:04.024Z,63.35
2023-02-27T01:07:06.800Z,63.27
2023-02-27T01:12:09.909Z,63.83
2023-02-27T01:17:14.083Z,64.01
2023-02-27T01:22:16.894Z,63.68
2023-02-27T01:27:19.925Z,63.53
2023-02-27T01:32:24.165Z,63.58
2023-02-27T01:37:27.170Z,63.57
2023-02-27T01:42:30.193Z,63.62
2023-02-27T01:47:34.607Z,63.28
2023-02-27T01:52:39.677Z,63.68
2023-02-27T01:57:44.847Z,63.69
2023-02-27T02:02:57.178Z,63.78
2023-02-27T02:07:59.960Z,63.52
2023-02-27T02:13:03.587Z,63.93
2023-02-27T02:18:19.789Z,63.74
2023-02-27T02:23:47.771Z,64.05
2023-02-27T02:29:24.038Z,64.11
2023-02-27T02:35:15.869Z,64.69
2023-02-27T02:40:32.635Z,64.47
2023-02-27T02:45:44.253Z,64.95
2023-02-27T02:50:53.569Z,64.82
2023-02-27T02:56:05.539Z,64.48
2023-02-27T03:01:15.699Z,64.64
2023-02-27T03:06:23.288Z,64.90
2023-02-27T03:11:30.763Z,64.93
2023-02-27T03:16:41.098Z,64.84
2023-02-27T03:21:49.665Z,64.86
2023-02-27T03:26:59.430Z,64.70
2023-02-27T03:32:10.146Z,65.34
2023-02-27T03:37:26.480Z,65.30
2023-02-27T03:42:37.425Z,64.72
2023-02-27T03:47:40.674Z,65.67
2023-02-27T03:52:45.068Z,66.41
2023-02-27T03:57:51.914Z,66.99
2023-02-27T04:02:57.717Z,66.98
2023-02-27T04:08:33.162Z,67.02
2023-02-27T04:13:53.432Z,66.95
2023-02-27T04:19:08.754Z,66.42
2023-02-27T04:24:20.484Z,66.75
2023-02-27T04:29:34.711Z,66.56
2023-02-27T04:34:41.426Z,66.87
2023-02-27T04:39:51.804Z,66.46
2023-02-27T04:45:00.825Z,66.60
2023-02-27T04:50:08.358Z,65.86
2023-02-27T04:55:15.821Z,65.86
2023-02-27T05:00:24.109Z,65.91
2023-02-27T05:05:31.942Z,65.59
2023-02-27T05:10:40.185Z,65.61
2023-02-27T05:15:49.673Z,65.55
2023-02-27T05:20:58.388Z,65.91
2023-02-27T05:26:06.809Z,65.77
2023-02-27T05:31:16.675Z,65.56
2023-02-27T05:36:23.843Z,66.03
2023-02-27T05:41:29.791Z,66.16
2023-02-27T05:46:37.244Z,66.26
2023-02-27T05:51:42.280Z,66.19
2023-02-27T05:56:47.786Z,66.10
2023-02-27T06:01:52.062Z,66.41
2023-02-27T06:06:55.302Z,66.71
2023-02-27T06:11:58.696Z,67.26
2023-02-27T06:17:03.381Z,67.55
2023-02-27T06:22:06.251Z,67.39
2023-02-27T06:27:09.343Z,67.05
2023-02-27T06:32:13.493Z,67.01
2023-02-27T06:37:16.219Z,67.04
2023-02-27T06:42:19.541Z,67.03
2023-02-27T06:47:25.086Z,65.93
2023-02-27T06:52:28.158Z,64.72
2023-02-27T06:57:31.554Z,64.76
2023-02-27T07:02:35.762Z,64.58
2023-02-27T07:07:39.227Z,64.65
2023-02-27T07:12:42.808Z,62.71
2023-02-27T07:17:46.921Z,60.96
2023-02-27T07:22:49.822Z,60.01
2023-02-27T07:27:52.639Z,60.11
2023-02-27T07:32:56.752Z,59.59
2023-02-27T07:37:59.693Z,58.88
2023-02-27T07:43:02.524Z,57.31
2023-02-27T07:48:07.106Z,56.28
2023-02-27T07:53:09.901Z,56.27
2023-02-27T07:58:12.704Z,55.61
2023-02-27T08:03:16.898Z,55.35
2023-02-27T08:08:19.729Z,52.96
2023-02-27T08:13:35.958Z,51.41
2023-02-27T08:18:46.496Z,50.55
2023-02-27T08:23:49.292Z,49.47
2023-02-27T08:28:52.161Z,50.68
2023-02-27T08:34:04.526Z,52.37
2023-02-27T08:39:12.671Z,51.74
2023-02-27T08:44:15.894Z,49.92
2023-02-27T08:49:21.649Z,47.98
2023-02-27T08:54:24.607Z,48.33
2023-02-27T08:59:27.493Z,48.26
2023-02-27T09:04:31.761Z,47.22
2023-02-27T09:09:34.530Z,46.73
2023-02-27T09:14:37.522Z,45.40
2023-02-27T09:19:41.681Z,45.93
2023-02-27T09:24:44.523Z,44.93
2023-02-27T09:29:48.880Z,45.19
2023-02-27T09:34:53.028Z,44.68
2023-02-27T09:39:55.805Z,42.99
2023-02-27T09:45:05.507Z,43.36
2023-02-27T09:50:29.574Z,43.80
2023-02-27T09:55:36.626Z,43.35
2023-02-27T10:00:48.118Z,43.06
2023-02-27T10:06:07.221Z,43.16
2023-02-27T10:11:15.176Z,41.62
2023-02-27T10:16:21.533Z,41.17
2023-02-27T10:21:32.350Z,41.54
2023-02-27T10:26:39.236Z,41.24
2023-02-27T10:31:43.434Z,41.03
2023-02-27T10:36:48.657Z,40.75
2023-02-27T10:41:51.950Z,41.60
2023-02-27T10:46:54.679Z,40.73
2023-02-27T10:52:10.584Z,38.57
2023-02-27T10:57:28.795Z,38.44
2023-02-27T11:02:38.187Z,37.15
2023-02-27T11:07:42.478Z,34.71
2023-02-27T11:13:00.128Z,35.70
2023-02-27T11:18:21.568Z,39.64
2023-02-27T11:23:26.653Z,41.98
2023-02-27T11:28:31.164Z,41.96
2023-02-27T11:33:39.030Z,40.73
2023-02-27T11:38:43.323Z,38.85
2023-02-27T11:43:51.847Z,36.09
2023-02-27T11:49:01.107Z,39.05
2023-02-27T11:54:34.785Z,41.35
2023-02-27T11:59:45.396Z,42.64
2023-02-27T12:04:53.094Z,40.44
2023-02-27T12:10:04.603Z,41.87
2023-02-27T12:15:18.823Z,43.30
2023-02-27T12:20:27.961Z,41.77
2023-02-27T12:25:41.972Z,34.97
2023-02-27T12:30:51.200Z,36.59
2023-02-27T12:35:59.281Z,38.77
2023-02-27T12:41:30.400Z,40.21
2023-02-27T12:46:43.526Z,40.17
2023-02-27T12:51:55.850Z,38.23
2023-02-27T12:57:14.929Z,35.10
2023-02-27T13:02:33.350Z,37.98
2023-02-27T13:07:39.938Z,39.87
2023-02-27T13:12:51.982Z,31.29
2023-02-27T13:17:59.741Z,35.87
2023-02-27T13:23:14.462Z,38.92
2023-02-27T13:28:24.937Z,40.83
2023-02-27T13:33:34.605Z,42.16
2023-02-27T13:38:43.809Z,39.43
2023-02-27T13:43:52.552Z,40.17
2023-02-27T13:48:56.034Z,37.24
2023-02-27T13:54:13.741Z,34.59
2023-02-27T13:59:23.679Z,36.11
2023-02-27T14:04:30.405Z,37.78
2023-02-27T14:09:38.070Z,35.23
2023-02-27T14:14:47.728Z,35.53
2023-02-27T14:19:59.241Z,36.00
2023-02-27T14:25:06.557Z,37.64
2023-02-27T14:30:27.608Z,35.70
2023-02-27T14:35:31.263Z,33.89
2023-02-27T14:40:41.280Z,34.27
2023-02-27T14:45:45.469Z,34.18
2023-02-27T14:50:53.880Z,33.78
2023-02-27T14:55:58.752Z,34.89
2023-02-27T15:01:06.279Z,34.82
2023-02-27T15:06:18.217Z,34.93
2023-02-27T15:11:23.353Z,36.98
2023-02-27T15:16:37.553Z,39.02
2023-02-27T15:21:43.862Z,37.84
2023-02-27T15:26:48.895Z,37.14
2023-02-27T15:31:53.896Z,36.92
2023-02-27T15:36:58.292Z,36.58
2023-02-27T15:42:03.976Z,36.67
2023-02-27T15:47:11.302Z,36.60
2023-02-27T15:52:19.410Z,37.94
2023-02-27T15:57:24.018Z,39.05
2023-02-27T16:02:32.345Z,40.55
2023-02-27T16:07:41.608Z,41.10
2023-02-27T16:12:45.056Z,41.28
2023-02-27T16:17:56.720Z,41.48
2023-02-27T16:23:03.060Z,42.06
2023-02-27T16:28:05.858Z,42.63
2023-02-27T16:33:23.352Z,42.02
2023-02-27T16:38:26.253Z,42.23
2023-02-27T16:43:28.987Z,43.64
2023-02-27T16:48:33.114Z,44.51
2023-02-27T16:53:35.877Z,45.14
2023-02-27T16:58:38.883Z,45.76
2023-02-27T17:03:44.190Z,46.29
2023-02-27T17:08:47.041Z,46.76
2023-02-27T17:13:49.821Z,47.04
2023-02-27T17:18:53.899Z,47.27
2023-02-27T17:23:56.722Z,47.94
2023-02-27T17:28:59.616Z,48.16
2023-02-27T17:34:05.574Z,48.82
2023-02-27T17:39:09.012Z,48.92
2023-02-27T17:44:12.466Z,49.04
2023-02-27T17:49:17.063Z,49.22
2023-02-27T17:54:19.804Z,49.49
2023-02-27T17:59:22.532Z,49.79
2023-02-27T18:04:27.093Z,50.23
2023-02-27T18:09:29.874Z,50.48
2023-02-27T18:14:32.669Z,50.80
2023-02-27T18:19:39.515Z,51.05
2023-02-27T18:24:43.600Z,51.37
2023-02-27T18:29:46.477Z,51.40
2023-02-27T18:34:51.192Z,51.56
2023-02-27T18:39:53.950Z,51.75
2023-02-27T18:44:56.703Z,52.05
2023-02-27T18:50:00.846Z,51.86
2023-02-27T18:55:03.603Z,52.01
2023-02-27T19:00:08.113Z,52.39
2023-02-27T19:05:14.547Z,52.32
2023-02-27T19:10:17.455Z,52.39
2023-02-27T19:15:20.349Z,52.46
2023-02-27T19:20:24.670Z,52.45
2023-02-27T19:25:27.604Z,52.71
2023-02-27T19:30:30.370Z,52.50
2023-02-27T19:35:34.572Z,52.36
2023-02-27T19:40:37.363Z,52.45
2023-02-27T19:45:41.806Z,52.81
2023-02-27T19:50:45.992Z,53.24
2023-02-27T19:55:57.974Z,53.27
2023-02-27T20:01:00.793Z,53.52
2023-02-27T20:06:06.333Z,53.82
2023-02-27T20:11:09.265Z,54.22
2023-02-27T20:16:15.156Z,54.06
2023-02-27T20:21:21.949Z,54.15
2023-02-27T20:26:27.846Z,54.76
2023-02-27T20:31:32.878Z,54.85
2023-02-27T20:36:38.181Z,54.67
2023-02-27T20:41:41.219Z,54.90
2023-02-27T20:46:45.123Z,55.23
2023-02-27T20:51:49.402Z,55.24
2023-02-27T20:56:54.214Z,55.64
2023-02-27T21:01:57.133Z,55.70
2023-02-27T21:07:01.283Z,55.53
2023-02-27T21:12:04.779Z,56.01
2023-02-27T21:17:07.631Z,56.43
2023-02-27T21:22:11.836Z,56.54
2023-02-27T21:27:14.589Z,56.15
2023-02-27T21:32:18.470Z,56.42
2023-02-27T21:37:22.726Z,57.25
2023-02-27T21:42:25.450Z,56.96
2023-02-27T21:47:29.990Z,57.19
2023-02-27T21:52:34.109Z,57.26
2023-02-27T21:57:38.467Z,57.55
2023-02-27T22:02:41.796Z,58.20
2023-02-27T22:07:45.895Z,58.09
2023-02-27T22:12:48.661Z,58.31
2023-02-27T22:17:52.230Z,58.83
2023-02-27T22:22:56.360Z,59.04
2023-02-27T22:27:59.719Z,59.24
2023-02-27T22:33:02.504Z,59.46
2023-02-27T22:38:06.693Z,59.36
2023-02-27T22:43:11.144Z,59.83
2023-02-27T22:48:13.956Z,59.72
2023-02-27T22:53:18.070Z,59.71
2023-02-27T22:58:20.792Z,59.90
2023-02-27T23:03:23.551Z,60.02
2023-02-27T23:08:27.645Z,60.22
2023-02-27T23:13:32.026Z,60.06
2023-02-27T23:18:34.881Z,60.07
2023-02-27T23:23:39.241Z,60.27
2023-02-27T23:28:42.710Z,59.72
2023-02-27T23:33:45.623Z,59.86
2023-02-27T23:38:49.769Z,59.71
2023-02-27T23:43:53.695Z,60.05
2023-02-27T23:48:56.423Z,60.11
2023-02-27T23:54:00.981Z,60.34
2023-02-27T23:59:05.863Z,60.54
